createdAt,value
2018-06-13T00:00:49.448Z,958.80
2018-06-13T00:01:49.505Z,958.82
2018-06-13T00:02:49.494Z,958.83
2018-06-13T00:03:49.500Z,958.90
2018-06-13T00:04:49.524Z,958.86
2018-06-13T00:05:49.493Z,958.92
2018-06-13T00:06:49.409Z,958.93
2018-06-13T00:07:49.510Z,958.92
2018-06-13T00:08:49.579Z,958.90
2018-06-13T00:09:49.532Z,958.93
2018-06-13T00:10:49.511Z,958.92
2018-06-13T00:11:50.267Z,958.91
2018-06-13T00:12:49.526Z,958.90
2018-06-13T00:13:49.443Z,958.87
2018-06-13T00:14:49.478Z,958.86
2018-06-13T00:15:49.484Z,958.88
2018-06-13T00:16:49.501Z,958.88
2018-06-13T00:17:49.514Z,958.86
2018-06-13T00:18:49.477Z,958.82
2018-06-13T00:19:49.483Z,958.84
2018-06-13T00:20:49.517Z,958.80
2018-06-13T00:21:49.527Z,958.81
2018-06-13T00:22:49.554Z,958.82
2018-06-13T00:23:49.448Z,958.81
2018-06-13T00:24:49.446Z,958.84
2018-06-13T00:25:50.279Z,958.82
2018-06-13T00:26:49.456Z,958.84
2018-06-13T00:27:49.432Z,958.83
2018-06-13T00:28:49.363Z,958.81
2018-06-13T00:29:49.469Z,958.79
2018-06-13T00:30:49.534Z,958.78
2018-06-13T00:31:49.516Z,958.79
2018-06-13T00:32:50.274Z,958.75
2018-06-13T00:33:49.486Z,958.77
2018-06-13T00:34:49.520Z,958.75
2018-06-13T00:35:49.522Z,958.74
2018-06-13T00:36:49.463Z,958.75
2018-06-13T00:37:49.435Z,958.72
2018-06-13T00:38:49.463Z,958.70
2018-06-13T00:39:49.451Z,958.69
2018-06-13T00:40:49.450Z,958.69
2018-06-13T00:41:49.462Z,958.65
2018-06-13T00:42:49.470Z,958.67
2018-06-13T00:43:49.545Z,958.68
2018-06-13T00:44:49.481Z,958.65
2018-06-13T00:45:49.486Z,958.70
2018-06-13T00:46:49.471Z,958.70
2018-06-13T00:47:49.507Z,958.69
2018-06-13T00:48:49.542Z,958.70
2018-06-13T00:49:49.436Z,958.73
2018-06-13T00:50:49.446Z,958.70
2018-06-13T00:51:49.413Z,958.69
2018-06-13T00:52:50.329Z,958.71
2018-06-13T00:53:49.465Z,958.72
2018-06-13T00:54:50.275Z,958.64
2018-06-13T00:55:50.275Z,958.63
2018-06-13T00:56:50.324Z,958.63
2018-06-13T00:57:49.441Z,958.62
2018-06-13T00:58:49.476Z,958.61
2018-06-13T00:59:49.523Z,958.59
2018-06-13T01:00:49.497Z,958.60
2018-06-13T01:01:49.507Z,958.59
2018-06-13T01:02:49.376Z,958.60
2018-06-13T01:03:49.412Z,958.63
2018-06-13T01:04:49.412Z,958.62
2018-06-13T01:05:49.395Z,958.60
2018-06-13T01:06:50.286Z,958.57
2018-06-13T01:07:49.443Z,958.58
2018-06-13T01:08:49.412Z,958.62
2018-06-13T01:09:49.428Z,958.59
2018-06-13T01:10:49.446Z,958.60
2018-06-13T01:11:49.519Z,958.61
2018-06-13T01:12:49.500Z,958.62
2018-06-13T01:13:49.574Z,958.67
2018-06-13T01:14:49.517Z,958.60
2018-06-13T01:15:49.477Z,958.60
2018-06-13T01:16:49.411Z,958.56
2018-06-13T01:17:49.510Z,958.59
2018-06-13T01:18:50.284Z,958.62
2018-06-13T01:19:49.446Z,958.55
2018-06-13T01:20:49.430Z,958.57
2018-06-13T01:21:50.280Z,958.51
2018-06-13T01:22:49.418Z,958.48
2018-06-13T01:23:49.454Z,958.50
2018-06-13T01:24:49.482Z,958.48
2018-06-13T01:25:49.453Z,958.48
2018-06-13T01:26:49.484Z,958.52
2018-06-13T01:27:49.474Z,958.49
2018-06-13T01:28:49.429Z,958.51
2018-06-13T01:29:49.388Z,958.49
2018-06-13T01:30:49.403Z,958.44
2018-06-13T01:31:49.420Z,958.47
2018-06-13T01:32:49.438Z,958.43
2018-06-13T01:33:49.439Z,958.40
2018-06-13T01:34:49.512Z,958.41
2018-06-13T01:35:49.433Z,958.40
2018-06-13T01:36:49.526Z,958.43
2018-06-13T01:37:49.472Z,958.40
2018-06-13T01:38:49.537Z,958.41
2018-06-13T01:39:49.451Z,958.44
2018-06-13T01:40:50.286Z,958.45
2018-06-13T01:41:49.406Z,958.40
2018-06-13T01:42:49.403Z,958.44
2018-06-13T01:43:49.412Z,958.41
2018-06-13T01:44:49.404Z,958.37
2018-06-13T01:45:49.403Z,958.42
2018-06-13T01:46:49.408Z,958.37
2018-06-13T01:47:49.424Z,958.39
2018-06-13T01:48:49.411Z,958.42
2018-06-13T01:49:49.438Z,958.46
2018-06-13T01:50:49.427Z,958.41
2018-06-13T01:51:49.438Z,958.41
2018-06-13T01:52:49.414Z,958.42
2018-06-13T01:53:49.415Z,958.42
2018-06-13T01:54:49.420Z,958.42
2018-06-13T01:55:49.427Z,958.42
2018-06-13T01:56:49.416Z,958.42
2018-06-13T01:57:49.447Z,958.39
2018-06-13T01:58:49.419Z,958.42
2018-06-13T01:59:49.423Z,958.42
2018-06-13T02:00:49.443Z,958.41
2018-06-13T02:01:49.421Z,958.42
2018-06-13T02:02:49.421Z,958.42
2018-06-13T02:03:49.431Z,958.38
2018-06-13T02:04:49.480Z,958.37
2018-06-13T02:05:49.425Z,958.36
2018-06-13T02:06:49.425Z,958.38
2018-06-13T02:07:49.426Z,958.40
2018-06-13T02:08:49.432Z,958.36
2018-06-13T02:09:51.277Z,958.37
2018-06-13T02:10:49.429Z,958.33
2018-06-13T02:11:49.433Z,958.33
2018-06-13T02:12:49.434Z,958.38
2018-06-13T02:13:49.433Z,958.36
2018-06-13T02:14:49.465Z,958.38
2018-06-13T02:15:49.437Z,958.36
2018-06-13T02:16:49.472Z,958.35
2018-06-13T02:17:49.452Z,958.34
2018-06-13T02:18:49.438Z,958.33
2018-06-13T02:19:49.471Z,958.37
2018-06-13T02:20:49.442Z,958.37
2018-06-13T02:21:49.506Z,958.33
2018-06-13T02:22:49.441Z,958.32
2018-06-13T02:23:49.442Z,958.33
2018-06-13T02:24:49.444Z,958.35
2018-06-13T02:25:49.445Z,958.37
2018-06-13T02:26:49.465Z,958.42
2018-06-13T02:27:49.450Z,958.45
2018-06-13T02:28:49.447Z,958.41
2018-06-13T02:29:49.446Z,958.49
2018-06-13T02:30:49.460Z,958.47
2018-06-13T02:31:49.454Z,958.46
2018-06-13T02:32:49.449Z,958.49
2018-06-13T02:33:49.450Z,958.49
2018-06-13T02:34:49.480Z,958.49
2018-06-13T02:35:49.459Z,958.47
2018-06-13T02:36:49.452Z,958.44
2018-06-13T02:37:49.460Z,958.41
2018-06-13T02:38:49.454Z,958.44
2018-06-13T02:39:49.456Z,958.44
2018-06-13T02:40:49.484Z,958.44
2018-06-13T02:41:49.489Z,958.49
2018-06-13T02:42:49.458Z,958.48
2018-06-13T02:43:49.457Z,958.53
2018-06-13T02:44:49.499Z,958.56
2018-06-13T02:45:49.471Z,958.55
2018-06-13T02:46:49.462Z,958.54
2018-06-13T02:47:49.487Z,958.56
2018-06-13T02:48:49.470Z,958.57
2018-06-13T02:49:49.497Z,958.57
2018-06-13T02:50:49.463Z,958.58
2018-06-13T02:51:49.465Z,958.58
2018-06-13T02:52:49.541Z,958.56
2018-06-13T02:53:49.483Z,958.55
2018-06-13T02:54:49.522Z,958.54
2018-06-13T02:55:49.467Z,958.57
2018-06-13T02:56:49.521Z,958.58
2018-06-13T02:57:49.498Z,958.61
2018-06-13T02:58:49.469Z,958.56
2018-06-13T02:59:49.527Z,958.56
2018-06-13T03:00:49.470Z,958.54
2018-06-13T03:01:49.472Z,958.54
2018-06-13T03:02:49.477Z,958.55
2018-06-13T03:03:49.479Z,958.58
2018-06-13T03:04:49.492Z,958.50
2018-06-13T03:05:49.476Z,958.57
2018-06-13T03:06:51.293Z,958.53
2018-06-13T03:07:49.474Z,958.52
2018-06-13T03:08:49.482Z,958.51
2018-06-13T03:09:49.477Z,958.51
2018-06-13T03:10:49.483Z,958.49
2018-06-13T03:11:49.491Z,958.49
2018-06-13T03:12:49.477Z,958.52
2018-06-13T03:13:49.478Z,958.50
2018-06-13T03:14:49.479Z,958.50
2018-06-13T03:15:49.482Z,958.48
2018-06-13T03:16:49.487Z,958.54
2018-06-13T03:17:51.291Z,958.55
2018-06-13T03:18:49.504Z,958.57
2018-06-13T03:19:49.483Z,958.57
2018-06-13T03:20:49.618Z,958.58
2018-06-13T03:21:49.487Z,958.58
2018-06-13T03:22:49.485Z,958.57
2018-06-13T03:23:49.489Z,958.54
2018-06-13T03:24:49.489Z,958.54
2018-06-13T03:25:49.491Z,958.54
2018-06-13T03:26:49.489Z,958.58
2018-06-13T03:27:49.484Z,958.59
2018-06-13T03:28:49.489Z,958.63
2018-06-13T03:29:49.493Z,958.62
2018-06-13T03:30:49.496Z,958.62
2018-06-13T03:31:49.491Z,958.57
2018-06-13T03:32:49.489Z,958.64
2018-06-13T03:33:49.493Z,958.63
2018-06-13T03:34:49.491Z,958.61
2018-06-13T03:35:49.497Z,958.61
2018-06-13T03:36:49.496Z,958.58
2018-06-13T03:37:49.492Z,958.62
2018-06-13T03:38:49.516Z,958.60
2018-06-13T03:39:49.493Z,958.61
2018-06-13T03:40:49.498Z,958.62
2018-06-13T03:41:49.492Z,958.63
2018-06-13T03:42:49.495Z,958.62
2018-06-13T03:43:49.517Z,958.62
2018-06-13T03:44:51.300Z,958.68
2018-06-13T03:45:49.496Z,958.58
2018-06-13T03:46:49.498Z,958.64
2018-06-13T03:47:49.499Z,958.62
2018-06-13T03:48:49.500Z,958.64
2018-06-13T03:49:49.520Z,958.66
2018-06-13T03:50:49.508Z,958.67
2018-06-13T03:51:49.502Z,958.67
2018-06-13T03:52:49.509Z,958.71
2018-06-13T03:53:49.527Z,958.75
2018-06-13T03:54:49.501Z,958.78
2018-06-13T03:55:49.504Z,958.78
2018-06-13T03:56:49.503Z,958.77
2018-06-13T03:57:49.503Z,958.73
2018-06-13T03:58:49.506Z,958.75
2018-06-13T03:59:49.529Z,958.82
2018-06-13T04:00:49.544Z,958.79
2018-06-13T04:01:49.581Z,958.82
2018-06-13T04:02:49.505Z,958.84
2018-06-13T04:03:49.513Z,958.83
2018-06-13T04:04:49.537Z,958.86
2018-06-13T04:05:49.509Z,958.85
2018-06-13T04:06:49.507Z,958.87
2018-06-13T04:07:49.509Z,958.91
2018-06-13T04:08:51.299Z,958.90
2018-06-13T04:09:51.338Z,958.95
2018-06-13T04:10:51.305Z,958.92
2018-06-13T04:11:49.537Z,958.98
2018-06-13T04:12:49.528Z,959.01
2018-06-13T04:13:49.532Z,958.94
2018-06-13T04:14:49.513Z,959.00
2018-06-13T04:15:49.511Z,959.00
2018-06-13T04:16:49.601Z,959.01
2018-06-13T04:17:51.331Z,959.02
2018-06-13T04:18:49.516Z,959.02
2018-06-13T04:19:49.537Z,959.01
2018-06-13T04:20:49.514Z,958.97
2018-06-13T04:21:49.517Z,958.96
2018-06-13T04:22:49.516Z,958.95
2018-06-13T04:23:49.527Z,958.93
2018-06-13T04:24:49.543Z,958.94
2018-06-13T04:25:49.516Z,958.96
2018-06-13T04:26:49.517Z,959.02
2018-06-13T04:27:49.519Z,959.00
2018-06-13T04:28:49.521Z,959.01
2018-06-13T04:29:49.560Z,959.09
2018-06-13T04:30:49.524Z,959.04
2018-06-13T04:31:49.523Z,959.06
2018-06-13T04:32:49.526Z,959.05
2018-06-13T04:33:49.563Z,959.10
2018-06-13T04:34:49.526Z,959.10
2018-06-13T04:35:49.543Z,959.08
2018-06-13T04:36:49.529Z,959.09
2018-06-13T04:37:49.530Z,959.09
2018-06-13T04:38:49.531Z,959.09
2018-06-13T04:39:49.577Z,959.09
2018-06-13T04:40:49.555Z,959.08
2018-06-13T04:41:49.535Z,959.10
2018-06-13T04:42:49.527Z,959.09
2018-06-13T04:43:49.534Z,959.06
2018-06-13T04:44:49.527Z,959.11
2018-06-13T04:45:49.529Z,959.11
2018-06-13T04:46:49.534Z,959.11
2018-06-13T04:47:49.524Z,959.14
2018-06-13T04:48:51.303Z,959.13
2018-06-13T04:49:49.528Z,959.14
2018-06-13T04:50:49.538Z,959.13
2018-06-13T04:51:49.532Z,959.16
2018-06-13T04:52:49.533Z,959.11
2018-06-13T04:53:49.533Z,959.11
2018-06-13T04:54:49.539Z,959.11
2018-06-13T04:55:49.560Z,959.10
2018-06-13T04:56:49.538Z,959.11
2018-06-13T04:57:49.533Z,959.10
2018-06-13T04:58:49.533Z,959.14
2018-06-13T04:59:49.536Z,959.12
2018-06-13T05:00:49.539Z,959.13
2018-06-13T05:03:36.274Z,959.11
2018-06-13T05:04:36.385Z,959.11
2018-06-13T05:06:29.771Z,959.17
2018-06-13T05:07:29.229Z,959.19
2018-06-13T05:08:30.190Z,959.21
2018-06-13T05:09:30.861Z,959.24
2018-06-13T05:10:30.259Z,959.26
2018-06-13T05:11:29.223Z,959.29
2018-06-13T05:12:29.175Z,959.23
2018-06-13T05:13:29.205Z,959.23
2018-06-13T05:14:28.790Z,959.26
2018-06-13T05:15:28.773Z,959.26
2018-06-13T05:16:28.790Z,959.27
2018-06-13T05:17:28.841Z,959.25
2018-06-13T05:18:28.780Z,959.27
2018-06-13T05:20:23.124Z,959.27
2018-06-13T05:21:31.186Z,959.29
2018-06-13T05:23:16.010Z,959.32
2018-06-13T05:24:15.972Z,959.33
2018-06-13T05:26:08.893Z,959.31
2018-06-13T05:27:08.911Z,959.30
2018-06-13T05:29:02.421Z,959.29
2018-06-13T05:30:02.402Z,959.28
2018-06-13T05:31:55.153Z,959.25
2018-06-13T05:32:55.237Z,959.29
2018-06-13T05:34:48.123Z,959.26
2018-06-13T05:35:48.109Z,959.25
2018-06-13T05:37:41.582Z,959.29
2018-06-13T05:38:41.515Z,959.25
2018-06-13T05:40:34.817Z,959.28
2018-06-13T05:41:34.935Z,959.28
2018-06-13T05:43:28.826Z,959.31
2018-06-13T05:44:29.308Z,959.36
2018-06-13T05:45:28.714Z,959.34
2018-06-13T05:46:28.677Z,959.38
2018-06-13T05:47:28.433Z,959.39
2018-06-13T05:48:28.745Z,959.43
2018-06-13T05:49:28.317Z,959.40
2018-06-13T05:50:28.321Z,959.43
2018-06-13T05:51:28.319Z,959.43
2018-06-13T05:52:28.323Z,959.42
2018-06-13T05:53:28.323Z,959.41
2018-06-13T05:54:28.324Z,959.42
2018-06-13T05:55:28.323Z,959.47
2018-06-13T05:56:28.329Z,959.45
2018-06-13T05:57:28.330Z,959.49
2018-06-13T05:58:28.365Z,959.48
2018-06-13T05:59:28.339Z,959.51
2018-06-13T06:00:28.340Z,959.51
2018-06-13T06:01:28.448Z,959.50
2018-06-13T06:02:28.343Z,959.57
2018-06-13T06:03:28.336Z,959.55
2018-06-13T06:04:28.342Z,959.57
2018-06-13T06:05:28.341Z,959.53
2018-06-13T06:06:28.346Z,959.53
2018-06-13T06:07:28.349Z,959.52
2018-06-13T06:08:28.351Z,959.52
2018-06-13T06:09:28.352Z,959.53
2018-06-13T06:10:28.443Z,959.52
2018-06-13T06:11:28.357Z,959.50
2018-06-13T06:12:28.361Z,959.46
2018-06-13T06:13:28.365Z,959.48
2018-06-13T06:14:28.361Z,959.54
2018-06-13T06:15:28.362Z,959.51
2018-06-13T06:16:28.364Z,959.59
2018-06-13T06:17:28.373Z,959.51
2018-06-13T06:18:28.372Z,959.54
2018-06-13T06:19:28.368Z,959.56
2018-06-13T06:20:28.370Z,959.58
2018-06-13T06:21:28.373Z,959.56
2018-06-13T06:22:28.373Z,959.53
2018-06-13T06:23:28.384Z,959.51
2018-06-13T06:24:28.380Z,959.49
2018-06-13T06:25:28.379Z,959.50
2018-06-13T06:26:28.389Z,959.49
2018-06-13T06:27:28.386Z,959.48
2018-06-13T06:28:28.393Z,959.54
2018-06-13T06:29:28.393Z,959.53
2018-06-13T06:30:28.392Z,959.54
2018-06-13T06:31:28.425Z,959.58
2018-06-13T06:32:28.397Z,959.54
2018-06-13T06:33:28.401Z,959.63
2018-06-13T06:34:28.405Z,959.58
2018-06-13T06:35:28.404Z,959.57
2018-06-13T06:36:28.405Z,959.59
2018-06-13T06:37:28.405Z,959.59
2018-06-13T06:38:28.446Z,959.59
2018-06-13T06:39:28.416Z,959.59
2018-06-13T06:40:28.417Z,959.63
2018-06-13T06:41:28.416Z,959.58
2018-06-13T06:42:28.418Z,959.56
2018-06-13T06:43:28.420Z,959.60
2018-06-13T06:44:28.419Z,959.57
2018-06-13T06:45:28.423Z,959.59
2018-06-13T06:46:28.427Z,959.64
2018-06-13T06:47:28.428Z,959.63
2018-06-13T06:48:28.432Z,959.57
2018-06-13T06:49:28.430Z,959.68
2018-06-13T06:50:28.446Z,959.63
2018-06-13T06:51:28.438Z,959.64
2018-06-13T06:52:28.438Z,959.64
2018-06-13T06:53:28.438Z,959.61
2018-06-13T06:54:28.442Z,959.64
2018-06-13T06:55:28.510Z,959.59
2018-06-13T06:56:28.489Z,959.61
2018-06-13T06:57:28.444Z,959.61
2018-06-13T06:58:28.446Z,959.62
2018-06-13T06:59:28.457Z,959.65
2018-06-13T07:00:28.460Z,959.62
2018-06-13T07:01:28.466Z,959.59
2018-06-13T07:02:28.469Z,959.61
2018-06-13T07:03:28.469Z,959.59
2018-06-13T07:04:28.487Z,959.59
2018-06-13T07:05:28.465Z,959.62
2018-06-13T07:06:28.493Z,959.64
2018-06-13T07:07:28.513Z,959.65
2018-06-13T07:08:28.473Z,959.62
2018-06-13T07:09:28.575Z,959.62
2018-06-13T07:10:28.635Z,959.62
2018-06-13T07:11:28.497Z,959.61
2018-06-13T07:12:28.546Z,959.63
2018-06-13T07:13:30.476Z,959.66
2018-06-13T07:14:29.510Z,959.68
2018-06-13T07:15:28.484Z,959.65
2018-06-13T07:16:28.495Z,959.70
2018-06-13T07:17:28.507Z,959.69
2018-06-13T07:18:28.505Z,959.62
2018-06-13T07:19:28.502Z,959.65
2018-06-13T07:20:28.493Z,959.60
2018-06-13T07:21:28.498Z,959.66
2018-06-13T07:22:28.500Z,959.68
2018-06-13T07:23:28.506Z,959.65
2018-06-13T07:24:28.508Z,959.67
2018-06-13T07:25:28.553Z,959.72
2018-06-13T07:26:30.496Z,959.70
2018-06-13T07:27:28.517Z,959.73
2018-06-13T07:28:28.563Z,959.71
2018-06-13T07:29:28.518Z,959.70
2018-06-13T07:30:28.572Z,959.72
2018-06-13T07:31:28.540Z,959.72
2018-06-13T07:32:28.597Z,959.72
2018-06-13T07:33:31.411Z,959.68
2018-06-13T07:34:30.414Z,959.69
2018-06-13T07:35:28.532Z,959.74
2018-06-13T07:36:30.410Z,959.71
2018-06-13T07:37:28.531Z,959.71
2018-06-13T07:38:28.548Z,959.72
2018-06-13T07:39:28.635Z,959.74
2018-06-13T07:40:28.608Z,959.78
2018-06-13T07:41:30.442Z,959.78
2018-06-13T07:42:28.547Z,959.73
2018-06-13T07:43:28.590Z,959.80
2018-06-13T07:44:28.544Z,959.85
2018-06-13T07:45:28.544Z,959.80
2018-06-13T07:46:28.547Z,959.79
2018-06-13T07:47:28.550Z,959.82
2018-06-13T07:48:31.428Z,959.83
2018-06-13T07:49:28.601Z,959.82
2018-06-13T07:50:28.586Z,959.81
2018-06-13T07:51:30.430Z,959.81
2018-06-13T07:52:28.568Z,959.84
2018-06-13T07:53:28.606Z,959.77
2018-06-13T07:54:30.417Z,959.76
2018-06-13T07:55:28.570Z,959.82
2018-06-13T07:56:30.392Z,959.78
2018-06-13T07:57:28.583Z,959.80
2018-06-13T07:58:28.568Z,959.80
2018-06-13T07:59:28.630Z,959.85
2018-06-13T08:00:28.580Z,959.82
2018-06-13T08:01:28.640Z,959.82
2018-06-13T08:02:28.598Z,959.83
2018-06-13T08:03:28.650Z,959.84
2018-06-13T08:04:28.579Z,959.88
2018-06-13T08:05:28.576Z,959.84
2018-06-13T08:06:28.576Z,959.88
2018-06-13T08:07:28.579Z,959.81
2018-06-13T08:08:28.699Z,959.91
2018-06-13T08:09:28.585Z,959.90
2018-06-13T08:10:28.593Z,959.92
2018-06-13T08:11:28.590Z,959.94
2018-06-13T08:12:28.587Z,959.99
2018-06-13T08:13:28.589Z,959.97
2018-06-13T08:14:28.620Z,959.96
2018-06-13T08:15:28.596Z,959.98
2018-06-13T08:16:28.606Z,960.03
2018-06-13T08:17:28.599Z,960.05
2018-06-13T08:18:28.610Z,960.02
2018-06-13T08:19:28.604Z,960.03
2018-06-13T08:20:28.635Z,960.08
2018-06-13T08:21:28.610Z,960.01
2018-06-13T08:22:28.613Z,960.06
2018-06-13T08:23:28.616Z,960.02
2018-06-13T08:24:28.615Z,960.00
2018-06-13T08:25:28.646Z,959.98
2018-06-13T08:26:28.620Z,960.00
2018-06-13T08:27:28.630Z,960.03
2018-06-13T08:28:28.630Z,960.04
2018-06-13T08:29:28.625Z,960.11
2018-06-13T08:30:28.626Z,960.14
2018-06-13T08:31:28.635Z,960.09
2018-06-13T08:32:28.634Z,960.09
2018-06-13T08:33:28.640Z,960.16
2018-06-13T08:34:28.638Z,960.10
2018-06-13T08:35:28.644Z,960.14
2018-06-13T08:36:28.646Z,960.09
2018-06-13T08:37:28.648Z,960.07
2018-06-13T08:38:28.696Z,960.08
2018-06-13T08:39:30.407Z,960.06
2018-06-13T08:40:28.661Z,960.11
2018-06-13T08:41:28.661Z,960.10
2018-06-13T08:42:28.668Z,960.11
2018-06-13T08:43:28.671Z,960.11
2018-06-13T08:44:28.672Z,960.12
2018-06-13T08:45:28.683Z,960.11
2018-06-13T08:46:28.678Z,960.16
2018-06-13T08:47:28.683Z,960.18
2018-06-13T08:48:28.773Z,960.14
2018-06-13T08:49:28.705Z,960.15
2018-06-13T08:50:28.694Z,960.16
2018-06-13T08:51:28.699Z,960.21
2018-06-13T08:52:28.710Z,960.24
2018-06-13T08:53:28.707Z,960.20
2018-06-13T08:54:28.717Z,960.22
2018-06-13T08:55:28.715Z,960.21
2018-06-13T08:56:28.724Z,960.20
2018-06-13T08:57:28.727Z,960.16
2018-06-13T08:58:28.725Z,960.24
2018-06-13T08:59:28.731Z,960.20
2018-06-13T09:00:28.740Z,960.19
2018-06-13T09:01:28.741Z,960.17
2018-06-13T09:02:28.743Z,960.18
2018-06-13T09:03:28.749Z,960.11
2018-06-13T09:04:28.751Z,960.16
2018-06-13T09:05:28.782Z,960.11
2018-06-13T09:06:28.757Z,960.11
2018-06-13T09:07:28.758Z,960.13
2018-06-13T09:08:28.783Z,960.14
2018-06-13T09:09:28.767Z,960.18
2018-06-13T09:10:28.770Z,960.18
2018-06-13T09:11:28.796Z,960.19
2018-06-13T09:12:32.407Z,960.17
2018-06-13T09:13:28.805Z,960.23
2018-06-13T09:14:28.784Z,960.19
2018-06-13T09:15:28.812Z,960.22
2018-06-13T09:16:28.796Z,960.18
2018-06-13T09:17:28.859Z,960.19
2018-06-13T09:18:28.815Z,960.23
2018-06-13T09:19:28.803Z,960.15
2018-06-13T09:20:28.809Z,960.17
2018-06-13T09:21:28.813Z,960.19
2018-06-13T09:22:28.818Z,960.24
2018-06-13T09:23:28.865Z,960.17
2018-06-13T09:24:28.817Z,960.21
2018-06-13T09:25:28.918Z,960.23
2018-06-13T09:26:28.877Z,960.19
2018-06-13T09:27:28.834Z,960.19
2018-06-13T09:28:31.407Z,960.22
2018-06-13T09:29:36.820Z,960.23
2018-06-13T09:31:23.362Z,960.21
2018-06-13T09:32:23.367Z,960.27
2018-06-13T09:33:23.112Z,960.26
2018-06-13T09:34:23.021Z,960.33
2018-06-13T09:35:22.983Z,960.28
2018-06-13T09:36:23.111Z,960.25
2018-06-13T09:37:22.959Z,960.24
2018-06-13T09:38:22.939Z,960.28
2018-06-13T09:39:23.004Z,960.22
2018-06-13T09:40:22.965Z,960.23
2018-06-13T09:41:22.988Z,960.29
2018-06-13T09:42:22.934Z,960.26
2018-06-13T09:43:22.954Z,960.26
2018-06-13T09:44:22.922Z,960.25
2018-06-13T09:45:22.926Z,960.27
2018-06-13T09:46:22.955Z,960.28
2018-06-13T09:47:23.456Z,960.32
2018-06-13T09:48:22.939Z,960.30
2018-06-13T09:49:22.937Z,960.32
2018-06-13T09:50:22.947Z,960.31
2018-06-13T09:51:22.943Z,960.28
2018-06-13T09:52:22.957Z,960.33
2018-06-13T09:53:23.043Z,960.34
2018-06-13T09:54:28.125Z,960.34
2018-06-13T09:55:25.064Z,960.35
2018-06-13T09:56:44.181Z,960.28
2018-06-13T09:57:22.982Z,960.35
2018-06-13T09:58:22.966Z,960.27
2018-06-13T09:59:22.975Z,960.34
2018-06-13T10:00:23.009Z,960.37
2018-06-13T10:01:22.998Z,960.32
2018-06-13T10:02:22.981Z,960.30
2018-06-13T10:03:22.986Z,960.31
2018-06-13T10:04:23.019Z,960.35
2018-06-13T10:05:22.992Z,960.35
2018-06-13T10:06:22.991Z,960.37
2018-06-13T10:07:22.997Z,960.36
2018-06-13T10:08:23.066Z,960.39
2018-06-13T10:09:23.014Z,960.36
2018-06-13T10:10:23.006Z,960.34
2018-06-13T10:11:23.014Z,960.32
2018-06-13T10:12:23.036Z,960.37
2018-06-13T10:13:23.033Z,960.35
2018-06-13T10:14:23.024Z,960.27
2018-06-13T10:15:23.036Z,960.29
2018-06-13T10:16:23.028Z,960.26
2018-06-13T10:17:23.033Z,960.27
2018-06-13T10:18:23.039Z,960.30
2018-06-13T10:19:23.038Z,960.31
2018-06-13T10:20:23.072Z,960.30
2018-06-13T10:21:23.045Z,960.32
2018-06-13T10:22:23.052Z,960.30
2018-06-13T10:23:23.064Z,960.27
2018-06-13T10:24:23.333Z,960.34
2018-06-13T10:25:23.064Z,960.30
2018-06-13T10:26:23.064Z,960.35
2018-06-13T10:27:23.089Z,960.38
2018-06-13T10:28:23.810Z,960.37
2018-06-13T10:29:23.109Z,960.43
2018-06-13T10:30:23.110Z,960.45
2018-06-13T10:31:23.116Z,960.49
2018-06-13T10:32:23.085Z,960.50
2018-06-13T10:33:23.092Z,960.48
2018-06-13T10:34:23.155Z,960.50
2018-06-13T10:35:23.116Z,960.52
2018-06-13T10:36:23.101Z,960.49
2018-06-13T10:37:23.108Z,960.53
2018-06-13T10:38:23.116Z,960.55
2018-06-13T10:39:23.127Z,960.51
2018-06-13T10:40:23.148Z,960.57
2018-06-13T10:41:23.118Z,960.56
2018-06-13T10:42:23.119Z,960.54
2018-06-13T10:43:23.129Z,960.61
2018-06-13T10:44:23.198Z,960.57
2018-06-13T10:45:23.127Z,960.58
2018-06-13T10:46:23.135Z,960.60
2018-06-13T10:47:23.133Z,960.59
2018-06-13T10:48:23.148Z,960.62
2018-06-13T10:49:23.137Z,960.59
2018-06-13T10:50:23.206Z,960.58
2018-06-13T10:51:23.144Z,960.60
2018-06-13T10:52:23.153Z,960.63
2018-06-13T10:53:23.150Z,960.62
2018-06-13T10:54:23.153Z,960.59
2018-06-13T10:55:23.157Z,960.60
2018-06-13T10:56:23.156Z,960.65
2018-06-13T10:57:23.160Z,960.66
2018-06-13T10:59:17.269Z,960.66
2018-06-13T11:00:17.139Z,960.67
2018-06-13T11:02:10.537Z,960.69
2018-06-13T11:03:10.506Z,960.76
2018-06-13T11:05:03.736Z,960.72
2018-06-13T11:06:03.451Z,960.73
2018-06-13T11:07:56.289Z,960.75
2018-06-13T11:08:56.267Z,960.80
2018-06-13T11:10:49.153Z,960.80
2018-06-13T11:11:49.165Z,960.77
2018-06-13T11:13:42.072Z,960.77
2018-06-13T11:14:41.940Z,960.76
2018-06-13T11:16:34.923Z,960.74
2018-06-13T11:17:34.926Z,960.75
2018-06-13T11:19:27.830Z,960.77
2018-06-13T11:20:27.832Z,960.77
2018-06-13T11:22:22.248Z,960.72
2018-06-13T11:23:22.264Z,960.70
2018-06-13T11:25:15.272Z,960.71
2018-06-13T11:26:15.208Z,960.73
2018-06-13T11:28:08.706Z,960.72
2018-06-13T11:29:08.401Z,960.74
2018-06-13T11:31:01.199Z,960.78
2018-06-13T11:32:01.318Z,960.80
2018-06-13T11:33:54.382Z,960.77
2018-06-13T11:34:54.240Z,960.69
2018-06-13T11:36:47.189Z,960.70
2018-06-13T11:37:47.077Z,960.68
2018-06-13T11:39:40.066Z,960.66
2018-06-13T11:40:39.950Z,960.76
2018-06-13T11:42:32.787Z,960.72
2018-06-13T11:43:32.971Z,960.68
2018-06-13T11:45:26.376Z,960.70
2018-06-13T11:46:26.402Z,960.74
2018-06-13T11:48:19.259Z,960.71
2018-06-13T11:49:19.200Z,960.79
2018-06-13T11:51:12.219Z,960.80
2018-06-13T11:52:11.969Z,960.79
2018-06-13T11:54:04.869Z,960.74
2018-06-13T11:55:05.001Z,960.77
2018-06-13T11:56:57.951Z,960.75
2018-06-13T11:57:58.006Z,960.73
2018-06-13T11:59:50.790Z,960.75
2018-06-13T12:00:50.700Z,960.76
2018-06-13T12:02:43.756Z,960.73
2018-06-13T12:03:43.557Z,960.75
2018-06-13T12:05:36.465Z,960.76
2018-06-13T12:06:36.364Z,960.74
2018-06-13T12:08:30.079Z,960.77
2018-06-13T12:09:30.684Z,960.76
2018-06-13T12:11:23.595Z,960.78
2018-06-13T12:12:23.476Z,960.78
2018-06-13T12:14:16.819Z,960.79
2018-06-13T12:15:16.685Z,960.75
2018-06-13T12:17:10.327Z,960.77
2018-06-13T12:18:10.210Z,960.76
2018-06-13T12:20:03.751Z,960.76
2018-06-13T12:21:03.825Z,960.78
2018-06-13T12:22:56.312Z,960.76
2018-06-13T12:23:56.232Z,960.74
2018-06-13T12:25:49.398Z,960.79
2018-06-13T12:26:50.231Z,960.78
2018-06-13T12:28:42.470Z,960.76
2018-06-13T12:29:43.479Z,960.70
2018-06-13T12:31:36.340Z,960.72
2018-06-13T12:32:36.355Z,960.75
2018-06-13T12:34:28.656Z,960.76
2018-06-13T12:35:29.651Z,960.80
2018-06-13T12:37:22.564Z,960.76
2018-06-13T12:38:22.077Z,960.80
2018-06-13T12:40:15.618Z,960.82
2018-06-13T12:41:16.134Z,960.79
2018-06-13T12:43:12.801Z,960.84
2018-06-13T12:44:10.499Z,960.92
2018-06-13T12:46:02.176Z,960.93
2018-06-13T12:47:02.317Z,960.90
2018-06-13T12:48:55.764Z,960.92
2018-06-13T12:49:55.770Z,960.92
2018-06-13T12:51:48.080Z,960.92
2018-06-13T12:52:49.103Z,960.90
2018-06-13T12:54:41.348Z,960.92
2018-06-13T12:55:41.301Z,960.94
2018-06-13T12:57:34.857Z,960.91
2018-06-13T12:58:34.095Z,960.95
2018-06-13T13:10:49.549Z,960.92
2018-06-13T13:11:49.205Z,960.93
2018-06-13T13:13:42.426Z,960.94
2018-06-13T13:14:42.368Z,960.94
2018-06-13T13:16:37.349Z,960.96
2018-06-13T13:17:36.271Z,960.94
2018-06-13T13:19:29.119Z,960.98
2018-06-13T13:20:29.245Z,960.99
2018-06-13T13:22:28.132Z,960.95
2018-06-13T13:23:21.651Z,960.94
2018-06-13T13:25:14.543Z,960.96
2018-06-13T13:26:14.442Z,960.96
2018-06-13T13:28:07.878Z,960.94
2018-06-13T13:29:07.893Z,960.96
2018-06-13T13:31:00.000Z,961.00
2018-06-13T13:31:59.844Z,961.00
2018-06-13T13:33:53.127Z,960.98
2018-06-13T13:34:52.751Z,960.98
2018-06-13T13:36:45.967Z,960.97